createdAt,value
2023-02-15T00:00:07.060Z,97726.63
2023-02-15T00:02:33.551Z,97729.78
2023-02-15T00:04:59.996Z,97728.91
2023-02-15T00:07:26.460Z,97728.69
2023-02-15T00:09:54.519Z,97736.16
2023-02-15T00:12:25.742Z,97726.91
2023-02-15T00:14:54.287Z,97721.81
2023-02-15T00:17:22.406Z,97722.97
2023-02-15T00:19:48.860Z,97724.41
2023-02-15T00:22:15.349Z,97731.00
2023-02-15T00:24:47.697Z,97723.13
2023-02-15T00:27:15.351Z,97724.94
2023-02-15T00:29:41.924Z,97721.41
2023-02-15T00:32:08.400Z,97722.88
2023-02-15T00:34:35.064Z,97724.44
2023-02-15T00:37:01.532Z,97735.28
2023-02-15T00:39:29.833Z,97728.38
2023-02-15T00:42:18.832Z,97727.84
2023-02-15T00:44:45.273Z,97724.38
2023-02-15T00:47:11.723Z,97723.75
2023-02-15T00:49:38.292Z,97723.94
2023-02-15T00:52:04.908Z,97724.91
2023-02-15T00:54:31.461Z,97718.66
2023-02-15T00:56:58.506Z,97724.25
2023-02-15T00:59:24.939Z,97723.13
2023-02-15T01:01:51.593Z,97723.34
2023-02-15T01:04:18.176Z,97714.91
2023-02-15T01:06:44.661Z,97725.63
2023-02-15T01:09:11.123Z,97722.13
2023-02-15T01:11:37.553Z,97724.72
2023-02-15T01:14:04.254Z,97734.47
2023-02-15T01:16:30.789Z,97729.34
2023-02-15T01:18:57.993Z,97731.22
2023-02-15T01:21:25.974Z,97736.28
2023-02-15T01:23:52.895Z,97740.66
2023-02-15T01:26:19.625Z,97743.50
2023-02-15T01:28:46.570Z,97736.72
2023-02-15T01:31:16.461Z,97739.13
2023-02-15T01:33:43.378Z,97741.50
2023-02-15T01:36:10.214Z,97736.41
2023-02-15T01:38:37.103Z,97739.03
2023-02-15T01:41:22.988Z,97734.69
2023-02-15T01:43:53.316Z,97736.63
2023-02-15T01:46:23.583Z,97745.69
2023-02-15T01:48:55.953Z,97740.53
2023-02-15T01:51:25.661Z,97740.91
2023-02-15T01:54:18.920Z,97730.03
2023-02-15T01:56:46.016Z,97731.50
2023-02-15T01:59:39.426Z,97734.50
2023-02-15T02:02:14.092Z,97728.97
2023-02-15T02:04:57.845Z,97730.25
2023-02-15T02:07:28.794Z,97732.75
2023-02-15T02:09:55.620Z,97738.41
2023-02-15T02:12:27.649Z,97730.00
2023-02-15T02:14:59.089Z,97733.41
2023-02-15T02:17:53.516Z,97724.97
2023-02-15T02:20:35.338Z,97710.78
2023-02-15T02:23:22.669Z,97719.03
2023-02-15T02:26:11.980Z,97719.59
2023-02-15T02:28:47.247Z,97718.66
2023-02-15T02:31:51.649Z,97720.53
2023-02-15T02:34:30.811Z,97719.59
2023-02-15T02:37:08.619Z,97724.41
2023-02-15T02:39:40.581Z,97725.84
2023-02-15T02:42:32.664Z,97731.53
2023-02-15T02:45:10.427Z,97726.16
2023-02-15T02:47:57.966Z,97729.84
2023-02-15T02:50:28.155Z,97729.75
2023-02-15T02:53:04.575Z,97735.56
2023-02-15T02:55:46.349Z,97727.13
2023-02-15T02:58:25.025Z,97724.16
2023-02-15T03:00:57.013Z,97726.13
2023-02-15T03:03:48.257Z,97731.66
2023-02-15T03:06:22.592Z,97731.53
2023-02-15T03:08:54.124Z,97725.88
2023-02-15T03:11:20.717Z,97730.81
2023-02-15T03:13:49.994Z,97741.84
2023-02-15T03:16:27.401Z,97738.69
2023-02-15T03:19:06.773Z,97730.03
2023-02-15T03:22:10.276Z,97733.59
2023-02-15T03:25:04.742Z,97729.03
2023-02-15T03:27:39.341Z,97726.47
2023-02-15T03:30:07.581Z,97730.13
2023-02-15T03:32:53.249Z,97735.13
2023-02-15T03:35:26.681Z,97729.13
2023-02-15T03:38:08.205Z,97729.97
2023-02-15T03:40:57.230Z,97722.75
2023-02-15T03:43:54.669Z,97731.78
2023-02-15T03:46:46.743Z,97729.78
2023-02-15T03:49:21.538Z,97727.41
2023-02-15T03:51:51.014Z,97732.56
2023-02-15T03:54:44.873Z,97725.75
2023-02-15T03:57:40.021Z,97729.31
2023-02-15T04:00:52.547Z,97728.44
2023-02-15T04:03:34.441Z,97718.63
2023-02-15T04:06:03.227Z,97713.66
2023-02-15T04:08:48.734Z,97713.56
2023-02-15T04:11:15.171Z,97719.59
2023-02-15T04:13:42.658Z,97725.41
2023-02-15T04:16:09.807Z,97714.97
2023-02-15T04:18:56.299Z,97720.03
2023-02-15T04:21:43.232Z,97716.59
2023-02-15T04:24:29.553Z,97723.84
2023-02-15T04:26:59.097Z,97721.09
2023-02-15T04:29:27.317Z,97712.75
2023-02-15T04:31:56.161Z,97717.81
2023-02-15T04:34:23.585Z,97720.31
2023-02-15T04:36:51.644Z,97720.41
2023-02-15T04:39:19.250Z,97714.72
2023-02-15T04:41:46.338Z,97723.88
2023-02-15T04:44:12.847Z,97723.84
2023-02-15T04:46:40.177Z,97711.56
2023-02-15T04:49:32.782Z,97713.88
2023-02-15T04:51:59.816Z,97715.50
2023-02-15T04:54:33.991Z,97711.56
2023-02-15T04:57:07.494Z,97706.19
2023-02-15T04:59:33.882Z,97705.59
2023-02-15T05:02:00.289Z,97705.72
2023-02-15T05:04:27.933Z,97705.56
2023-02-15T05:06:55.869Z,97703.00
2023-02-15T05:09:36.673Z,97699.84
2023-02-15T05:12:03.507Z,97706.06
2023-02-15T05:14:39.068Z,97698.84
2023-02-15T05:17:11.050Z,97695.69
2023-02-15T05:19:37.437Z,97689.91
2023-02-15T05:22:03.940Z,97693.09
2023-02-15T05:24:49.867Z,97692.09
2023-02-15T05:27:34.832Z,97687.06
2023-02-15T05:30:01.402Z,97687.94
2023-02-15T05:32:28.241Z,97682.03
2023-02-15T05:34:54.694Z,97677.97
2023-02-15T05:37:21.174Z,97684.13
2023-02-15T05:39:47.803Z,97684.78
2023-02-15T05:42:14.368Z,97696.28
2023-02-15T05:44:40.914Z,97697.47
2023-02-15T05:47:08.428Z,97682.56
2023-02-15T05:49:35.742Z,97695.13
2023-02-15T05:52:02.418Z,97687.75
2023-02-15T05:54:28.946Z,97688.56
2023-02-15T05:56:55.698Z,97691.78
2023-02-15T05:59:22.405Z,97696.00
2023-02-15T06:02:12.960Z,97688.38
2023-02-15T06:04:39.485Z,97693.31
2023-02-15T06:07:06.020Z,97694.88
2023-02-15T06:09:32.453Z,97707.16
2023-02-15T06:11:58.820Z,97710.41
2023-02-15T06:14:27.255Z,97712.22
2023-02-15T06:16:53.649Z,97707.22
2023-02-15T06:19:22.599Z,97713.78
2023-02-15T06:21:50.045Z,97725.72
2023-02-15T06:24:17.414Z,97729.31
2023-02-15T06:26:46.631Z,97732.81
2023-02-15T06:29:13.129Z,97728.47
2023-02-15T06:31:39.707Z,97726.78
2023-02-15T06:34:06.830Z,97733.53
2023-02-15T06:36:37.979Z,97733.72
2023-02-15T06:39:10.080Z,97738.63
2023-02-15T06:41:36.544Z,97752.06
2023-02-15T06:44:03.088Z,97741.41
2023-02-15T06:46:29.539Z,97748.28
2023-02-15T06:48:56.055Z,97745.78
2023-02-15T06:51:38.533Z,97753.47
2023-02-15T06:54:05.182Z,97748.44
2023-02-15T06:56:31.759Z,97749.16
2023-02-15T06:58:58.352Z,97749.94
2023-02-15T07:01:24.842Z,97753.97
2023-02-15T07:03:52.143Z,97753.28
2023-02-15T07:06:19.900Z,97752.25
2023-02-15T07:08:46.628Z,97750.34
2023-02-15T07:11:31.929Z,97754.72
2023-02-15T07:14:11.777Z,97757.19
2023-02-15T07:16:38.280Z,97757.91
2023-02-15T07:19:04.761Z,97763.75
2023-02-15T07:21:31.389Z,97766.94
2023-02-15T07:24:01.088Z,97765.09
2023-02-15T07:26:31.924Z,97768.66
2023-02-15T07:28:59.009Z,97767.06
2023-02-15T07:31:26.823Z,97771.16
2023-02-15T07:33:53.228Z,97766.22
2023-02-15T07:36:19.614Z,97771.31
2023-02-15T07:38:56.895Z,97760.47
2023-02-15T07:41:24.516Z,97759.59
2023-02-15T07:43:52.988Z,97758.06
2023-02-15T07:49:05.564Z,97755.59
2023-02-15T07:53:57.156Z,97744.53
2023-02-15T07:56:36.335Z,97746.84
2023-02-15T07:59:05.912Z,97746.16
2023-02-15T08:01:36.197Z,97747.94
2023-02-15T08:04:04.433Z,97743.81
2023-02-15T08:06:33.635Z,97750.44
2023-02-15T08:09:00.676Z,97742.69
2023-02-15T08:11:45.726Z,97738.97
2023-02-15T08:14:18.631Z,97745.25
2023-02-15T08:16:47.807Z,97735.66
2023-02-15T08:19:29.532Z,97731.41
2023-02-15T08:22:04.035Z,97736.47
2023-02-15T08:24:32.900Z,97728.97
2023-02-15T08:26:59.784Z,97725.50
2023-02-15T08:29:29.244Z,97731.34
2023-02-15T08:32:03.290Z,97726.13
2023-02-15T08:34:37.873Z,97715.50
2023-02-15T08:37:04.329Z,97713.75
2023-02-15T08:39:30.935Z,97719.19
2023-02-15T08:41:57.435Z,97717.13
2023-02-15T08:44:23.952Z,97714.44
2023-02-15T08:46:51.114Z,97710.06
2023-02-15T08:49:26.696Z,97707.78
2023-02-15T08:51:53.346Z,97707.22
2023-02-15T08:54:34.879Z,97707.94
2023-02-15T08:57:01.329Z,97702.16
2023-02-15T08:59:27.994Z,97697.31
2023-02-15T09:01:55.429Z,97700.00
2023-02-15T09:04:23.569Z,97698.03
2023-02-15T09:06:52.471Z,97694.09
2023-02-15T09:09:20.863Z,97688.00
2023-02-15T09:11:52.390Z,97687.50
2023-02-15T09:14:25.467Z,97683.56
2023-02-15T09:16:53.281Z,97680.13
2023-02-15T09:19:22.573Z,97680.97
2023-02-15T09:21:49.490Z,97676.56
2023-02-15T09:24:17.349Z,97666.00
2023-02-15T09:26:46.163Z,97665.03
2023-02-15T09:29:15.415Z,97663.16
2023-02-15T09:31:45.659Z,97667.25
2023-02-15T09:34:20.924Z,97662.97
2023-02-15T09:36:48.777Z,97671.06
2023-02-15T09:39:19.979Z,97685.41
2023-02-15T09:42:11.390Z,97682.22
2023-02-15T09:44:59.494Z,97680.25
2023-02-15T09:47:51.587Z,97685.59
2023-02-15T09:50:36.790Z,97685.78
2023-02-15T09:53:47.154Z,97682.41
2023-02-15T09:56:40.419Z,97673.66
2023-02-15T09:59:20.409Z,97673.03
2023-02-15T10:02:07.934Z,97672.84
2023-02-15T10:04:52.984Z,97671.97
2023-02-15T10:07:41.348Z,97668.84
2023-02-15T10:10:46.737Z,97663.13
2023-02-15T10:13:31.374Z,97652.25
2023-02-15T10:16:06.947Z,97661.47
2023-02-15T10:18:56.507Z,97653.00
2023-02-15T10:21:29.053Z,97639.78
2023-02-15T10:24:13.566Z,97640.09
2023-02-15T10:26:47.545Z,97637.09
2023-02-15T10:29:38.569Z,97626.34
2023-02-15T10:32:18.425Z,97630.53
2023-02-15T10:34:57.243Z,97629.78
2023-02-15T10:37:47.982Z,97625.41
2023-02-15T10:40:26.591Z,97615.50
2023-02-15T10:42:55.998Z,97613.00
2023-02-15T10:45:45.424Z,97608.81
2023-02-15T10:48:23.238Z,97601.22
2023-02-15T10:50:53.851Z,97586.88
2023-02-15T10:53:41.818Z,97582.47
2023-02-15T10:56:27.906Z,97586.03
2023-02-15T10:59:31.142Z,97579.81
2023-02-15T11:02:28.550Z,97575.31
2023-02-15T11:04:58.407Z,97563.44
2023-02-15T11:07:29.212Z,97565.41
2023-02-15T11:10:34.195Z,97558.53
2023-02-15T11:13:08.871Z,97559.97
2023-02-15T11:15:46.225Z,97559.47
2023-02-15T11:18:25.084Z,97562.09
2023-02-15T11:20:57.366Z,97553.56
2023-02-15T11:23:25.327Z,97544.75
2023-02-15T11:26:04.324Z,97554.50
2023-02-15T11:28:52.522Z,97553.28
2023-02-15T11:31:22.758Z,97555.19
2023-02-15T11:33:54.951Z,97556.84
2023-02-15T11:36:33.786Z,97555.81
2023-02-15T11:39:15.381Z,97554.09
2023-02-15T11:41:47.690Z,97549.22
2023-02-15T11:44:24.299Z,97538.66
2023-02-15T11:46:51.906Z,97543.34
2023-02-15T11:49:30.573Z,97533.75
2023-02-15T11:51:58.030Z,97526.66
2023-02-15T11:54:36.691Z,97529.81
2023-02-15T11:57:12.526Z,97518.31
2023-02-15T11:59:44.697Z,97514.34
2023-02-15T12:02:19.922Z,97513.72
2023-02-15T12:04:57.451Z,97487.75
2023-02-15T12:07:36.400Z,97481.09
2023-02-15T12:10:21.746Z,97476.00
2023-02-15T12:12:48.258Z,97469.97
2023-02-15T12:15:15.225Z,97459.41
2023-02-15T12:17:51.201Z,97453.78
2023-02-15T12:20:17.712Z,97446.63
2023-02-15T12:23:13.733Z,97459.78
2023-02-15T12:25:59.309Z,97454.16
2023-02-15T12:28:40.712Z,97438.19
2023-02-15T12:31:27.855Z,97444.72
2023-02-15T12:33:57.897Z,97427.31
2023-02-15T12:36:45.375Z,97429.06
2023-02-15T12:39:14.865Z,97432.72
2023-02-15T12:42:03.811Z,97423.78
2023-02-15T12:44:35.577Z,97413.44
2023-02-15T12:47:02.064Z,97419.69
2023-02-15T12:49:31.235Z,97417.66
2023-02-15T12:52:00.412Z,97415.72
2023-02-15T12:54:32.489Z,97424.72
2023-02-15T12:57:00.009Z,97424.28
2023-02-15T12:59:26.846Z,97411.63
2023-02-15T13:01:56.752Z,97413.53
2023-02-15T13:04:27.333Z,97415.56
2023-02-15T13:07:00.187Z,97411.72
2023-02-15T13:09:39.303Z,97414.19
2023-02-15T13:12:25.246Z,97406.53
2023-02-15T13:14:57.298Z,97407.91
2023-02-15T13:17:35.468Z,97415.38
2023-02-15T13:20:08.419Z,97400.41
2023-02-15T13:22:43.204Z,97389.00
2023-02-15T13:25:18.667Z,97384.00
2023-02-15T13:27:46.156Z,97378.22
2023-02-15T13:30:25.897Z,97374.44
2023-02-15T13:33:02.483Z,97369.84
2023-02-15T13:35:40.507Z,97374.53
2023-02-15T13:38:16.194Z,97383.53
2023-02-15T13:40:51.188Z,97371.41
2023-02-15T13:43:28.099Z,97376.25
2023-02-15T13:46:21.361Z,97378.66
2023-02-15T13:49:22.280Z,97378.69
2023-02-15T13:52:15.082Z,97370.53
2023-02-15T13:54:59.187Z,97371.81
2023-02-15T13:57:59.561Z,97370.81
2023-02-15T14:00:30.854Z,97360.53
2023-02-15T14:03:15.438Z,97365.69
2023-02-15T14:06:01.444Z,97374.41
2023-02-15T14:09:09.290Z,97380.53
2023-02-15T14:11:49.982Z,97374.31
2023-02-15T14:14:28.612Z,97374.16
2023-02-15T14:17:08.457Z,97378.66
2023-02-15T14:19:51.147Z,97372.56
2023-02-15T14:22:43.916Z,97376.97
2023-02-15T14:25:24.883Z,97371.59
2023-02-15T14:28:09.532Z,97376.50
2023-02-15T14:30:42.910Z,97375.72
2023-02-15T14:33:34.394Z,97380.16
2023-02-15T14:36:03.884Z,97379.09
2023-02-15T14:38:54.710Z,97379.53
2023-02-15T14:41:33.319Z,97380.97
2023-02-15T14:44:17.005Z,97380.94
2023-02-15T14:46:49.560Z,97381.47
2023-02-15T14:49:31.171Z,97389.72
2023-02-15T14:52:06.105Z,97380.31
2023-02-15T14:54:39.755Z,97384.88
2023-02-15T14:57:09.591Z,97392.78
2023-02-15T14:59:47.091Z,97404.53
2023-02-15T15:02:17.878Z,97419.00
2023-02-15T15:04:56.855Z,97432.53
2023-02-15T15:07:39.794Z,97435.50
2023-02-15T15:10:28.471Z,97446.63
2023-02-15T15:12:56.698Z,97453.03
2023-02-15T15:15:30.731Z,97448.88
2023-02-15T15:18:04.161Z,97429.94
2023-02-15T15:20:46.717Z,97445.59
2023-02-15T15:23:15.953Z,97440.88
2023-02-15T15:25:46.850Z,97436.88
2023-02-15T15:28:35.490Z,97446.22
2023-02-15T15:31:32.206Z,97444.03
2023-02-15T15:34:20.273Z,97448.50
2023-02-15T15:37:11.856Z,97442.75
2023-02-15T15:39:58.923Z,97439.41
2023-02-15T15:42:50.535Z,97437.16
2023-02-15T15:45:38.971Z,97441.53
2023-02-15T15:48:27.682Z,97438.38
2023-02-15T15:50:57.781Z,97446.22
2023-02-15T15:53:26.204Z,97434.94
2023-02-15T15:55:58.475Z,97434.84
2023-02-15T15:58:25.789Z,97437.31
2023-02-15T16:00:57.039Z,97439.75
2023-02-15T16:03:26.472Z,97444.31
2023-02-15T16:05:56.265Z,97432.16
2023-02-15T16:08:52.303Z,97434.72
2023-02-15T16:11:28.199Z,97439.78
2023-02-15T16:14:02.825Z,97441.28
2023-02-15T16:16:31.884Z,97450.06
2023-02-15T16:19:13.742Z,97450.41
2023-02-15T16:21:40.352Z,97449.75
2023-02-15T16:24:31.480Z,97445.16
2023-02-15T16:27:21.485Z,97442.41
2023-02-15T16:29:48.028Z,97447.81
2023-02-15T16:32:22.634Z,97446.63
2023-02-15T16:35:05.821Z,97443.34
2023-02-15T16:37:35.706Z,97439.28
2023-02-15T16:40:02.395Z,97436.47
2023-02-15T16:42:28.994Z,97439.78
2023-02-15T16:45:15.871Z,97441.53
2023-02-15T16:47:46.923Z,97437.47
2023-02-15T16:50:29.101Z,97439.72
2023-02-15T16:52:57.589Z,97436.88
2023-02-15T16:55:32.222Z,97439.94
2023-02-15T16:58:05.025Z,97440.81
2023-02-15T17:00:42.018Z,97441.16
2023-02-15T17:03:14.332Z,97436.41
2023-02-15T17:05:41.080Z,97432.00
2023-02-15T17:08:17.638Z,97439.09
2023-02-15T17:11:05.886Z,97446.38
2023-02-15T17:13:32.549Z,97445.16
2023-02-15T17:15:59.055Z,97449.94
2023-02-15T17:18:45.479Z,97449.16
2023-02-15T17:21:17.292Z,97451.00
2023-02-15T17:23:47.616Z,97444.09
2023-02-15T17:26:16.461Z,97447.81
2023-02-15T17:28:49.287Z,97445.88
2023-02-15T17:31:20.853Z,97444.84
2023-02-15T17:33:48.460Z,97452.97
2023-02-15T17:36:23.750Z,97446.91
2023-02-15T17:38:59.364Z,97450.75
2023-02-15T17:41:29.266Z,97449.19
2023-02-15T17:43:56.241Z,97450.00
2023-02-15T17:46:23.923Z,97459.66
2023-02-15T17:48:56.059Z,97454.25
2023-02-15T17:51:23.618Z,97459.50
2023-02-15T17:54:08.790Z,97468.22
2023-02-15T17:56:47.851Z,97461.28
2023-02-15T17:59:15.294Z,97467.56
2023-02-15T18:02:06.048Z,97466.94
2023-02-15T18:04:54.082Z,97473.53
2023-02-15T18:07:39.531Z,97471.50
2023-02-15T18:10:36.088Z,97476.09
2023-02-15T18:13:02.557Z,97472.69
2023-02-15T18:15:31.010Z,97475.97
2023-02-15T18:17:57.699Z,97480.53
2023-02-15T18:20:29.048Z,97472.59
2023-02-15T18:22:55.652Z,97476.72
2023-02-15T18:25:25.591Z,97485.34
2023-02-15T18:27:55.271Z,97483.03
2023-02-15T18:30:26.215Z,97495.06
2023-02-15T18:32:56.631Z,97497.28
2023-02-15T18:35:28.580Z,97503.41
2023-02-15T18:37:55.435Z,97503.22
2023-02-15T18:40:26.559Z,97516.09
2023-02-15T18:42:54.005Z,97517.78
2023-02-15T18:45:24.948Z,97518.03
2023-02-15T18:47:51.919Z,97522.75
2023-02-15T18:50:20.605Z,97523.00
2023-02-15T18:52:47.984Z,97539.84
2023-02-15T18:55:21.034Z,97536.41
2023-02-15T18:57:48.890Z,97546.97
2023-02-15T19:00:22.556Z,97544.16
2023-02-15T19:02:49.893Z,97547.38
2023-02-15T19:05:18.120Z,97554.78
2023-02-15T19:07:51.695Z,97543.13
2023-02-15T19:10:24.467Z,97551.59
2023-02-15T19:12:53.488Z,97561.03
2023-02-15T19:15:23.857Z,97563.41
2023-02-15T19:17:50.956Z,97563.66
2023-02-15T19:20:21.969Z,97553.31
2023-02-15T19:22:50.938Z,97565.56
2023-02-15T19:25:19.694Z,97567.66
2023-02-15T19:27:47.164Z,97575.66
2023-02-15T19:30:26.099Z,97568.06
2023-02-15T19:32:53.534Z,97571.06
2023-02-15T19:35:22.647Z,97577.19
2023-02-15T19:37:52.982Z,97571.13
2023-02-15T19:40:23.264Z,97566.94
2023-02-15T19:42:50.394Z,97566.66
2023-02-15T19:45:19.711Z,97577.94
2023-02-15T19:47:48.269Z,97570.41
2023-02-15T19:50:17.290Z,97563.34
2023-02-15T19:52:44.155Z,97560.88
2023-02-15T19:55:32.849Z,97567.03
2023-02-15T19:58:00.720Z,97555.69
2023-02-15T20:00:28.279Z,97556.59
2023-02-15T20:02:55.656Z,97562.06
2023-02-15T20:05:25.062Z,97565.22
2023-02-15T20:08:07.257Z,97568.06
2023-02-15T20:10:35.195Z,97577.41
2023-02-15T20:13:03.062Z,97568.84
2023-02-15T20:15:31.851Z,97568.25
2023-02-15T20:18:01.664Z,97573.22
2023-02-15T20:20:40.353Z,97578.97
2023-02-15T20:23:07.194Z,97574.69
2023-02-15T20:25:34.168Z,97581.03
2023-02-15T20:28:00.938Z,97576.22
2023-02-15T20:30:30.703Z,97572.78
2023-02-15T20:32:57.484Z,97571.00
2023-02-15T20:35:36.022Z,97573.47
2023-02-15T20:38:02.859Z,97571.47
2023-02-15T20:40:33.106Z,97582.81
2023-02-15T20:42:59.901Z,97578.78
2023-02-15T20:45:33.038Z,97572.19
2023-02-15T20:48:02.180Z,97573.16
2023-02-15T20:50:33.117Z,97568.94
2023-02-15T20:53:02.685Z,97568.72
2023-02-15T20:55:31.044Z,97569.38
2023-02-15T20:57:59.153Z,97565.59
2023-02-15T21:00:28.349Z,97568.50
2023-02-15T21:03:00.585Z,97568.66
2023-02-15T21:05:35.252Z,97559.78
2023-02-15T21:08:02.349Z,97563.63
2023-02-15T21:10:31.637Z,97568.25
2023-02-15T21:13:01.486Z,97568.16
2023-02-15T21:15:35.200Z,97560.88
2023-02-15T21:18:09.057Z,97553.13
2023-02-15T21:20:45.057Z,97565.97
2023-02-15T21:23:13.665Z,97560.47
2023-02-15T21:25:40.164Z,97550.06
2023-02-15T21:28:10.148Z,97553.19
2023-02-15T21:30:36.688Z,97551.28
2023-02-15T21:33:05.371Z,97547.06
2023-02-15T21:35:31.710Z,97555.25
2023-02-15T21:37:58.142Z,97543.47
2023-02-15T21:40:30.744Z,97546.88
2023-02-15T21:43:16.680Z,97540.09
2023-02-15T21:48:46.765Z,97551.41
2023-02-15T21:51:31.524Z,97548.69
2023-02-15T21:53:58.048Z,97549.56
2023-02-15T21:56:25.123Z,97539.44
2023-02-15T21:58:51.537Z,97545.84
2023-02-15T22:01:25.189Z,97543.91
2023-02-15T22:03:54.458Z,97537.59
2023-02-15T22:06:21.009Z,97538.16
2023-02-15T22:08:50.153Z,97527.00
2023-02-15T22:11:20.759Z,97538.66
2023-02-15T22:13:48.462Z,97532.41
2023-02-15T22:16:18.044Z,97529.59
2023-02-15T22:18:45.602Z,97525.72
2023-02-15T22:21:12.527Z,97520.66
2023-02-15T22:23:39.387Z,97520.47
2023-02-15T22:26:09.276Z,97521.41
2023-02-15T22:28:38.784Z,97517.38
2023-02-15T22:31:11.534Z,97516.28
2023-02-15T22:33:38.243Z,97514.09
2023-02-15T22:36:05.064Z,97514.88
2023-02-15T22:38:31.713Z,97512.47
2023-02-15T22:41:03.920Z,97518.22
2023-02-15T22:43:38.964Z,97521.13
2023-02-15T22:46:08.767Z,97508.22
2023-02-15T22:48:35.660Z,97511.63
2023-02-15T22:51:02.942Z,97508.22
2023-02-15T22:53:29.877Z,97505.53
2023-02-15T22:55:56.597Z,97513.47
2023-02-15T22:58:26.949Z,97518.53
2023-02-15T23:00:54.604Z,97515.72
2023-02-15T23:03:26.187Z,97517.66
2023-02-15T23:05:53.796Z,97517.38
2023-02-15T23:08:20.707Z,97519.69
2023-02-15T23:10:54.408Z,97524.94
2023-02-15T23:13:30.116Z,97519.59
2023-02-15T23:15:59.482Z,97522.56
2023-02-15T23:18:28.465Z,97525.13
2023-02-15T23:21:16.244Z,97523.97
2023-02-15T23:23:47.550Z,97524.47
2023-02-15T23:26:25.422Z,97528.59
2023-02-15T23:28:53.345Z,97525.88
2023-02-15T23:31:34.997Z,97520.44
2023-02-15T23:34:07.166Z,97516.44
2023-02-15T23:36:37.929Z,97513.91
2023-02-15T23:39:38.856Z,97519.59
2023-02-15T23:42:21.202Z,97514.31
2023-02-15T23:44:48.786Z,97520.63
2023-02-15T23:47:44.351Z,97526.63
2023-02-15T23:50:17.489Z,97527.81
2023-02-15T23:52:43.972Z,97523.56
2023-02-15T23:55:14.121Z,97525.97
2023-02-15T23:57:41.736Z,97532.34
